sensor_id;sensor_type;location;lat;lon;timestamp;P1;durP1;ratioP1;P2;durP2;ratioP2
18140;SDS011;9196;49.194;12.526;2024-03-17T00:02:12;4.55;;;3.60;;
18140;SDS011;9196;49.194;12.526;2024-03-17T00:04:38;3.13;;;2.57;;
18140;SDS011;9196;49.194;12.526;2024-03-17T00:07:06;3.00;;;2.80;;
18140;SDS011;9196;49.194;12.526;2024-03-17T00:09:33;3.97;;;3.60;;
18140;SDS011;9196;49.194;12.526;2024-03-17T00:12:00;3.70;;;3.40;;
18140;SDS011;9196;49.194;12.526;2024-03-17T00:14:25;5.23;;;3.47;;
18140;SDS011;9196;49.194;12.526;2024-03-17T00:16:53;3.03;;;2.83;;
18140;SDS011;9196;49.194;12.526;2024-03-17T00:19:19;3.95;;;3.58;;
18140;SDS011;9196;49.194;12.526;2024-03-17T00:21:47;2.97;;;2.78;;
18140;SDS011;9196;49.194;12.526;2024-03-17T00:24:14;2.90;;;2.70;;
18140;SDS011;9196;49.194;12.526;2024-03-17T00:26:41;3.15;;;2.95;;
18140;SDS011;9196;49.194;12.526;2024-03-17T00:29:07;3.10;;;2.87;;
18140;SDS011;9196;49.194;12.526;2024-03-17T00:31:34;2.92;;;2.72;;
18140;SDS011;9196;49.194;12.526;2024-03-17T00:34:00;5.33;;;3.70;;
18140;SDS011;9196;49.194;12.526;2024-03-17T00:36:26;4.00;;;3.35;;
18140;SDS011;9196;49.194;12.526;2024-03-17T00:38:52;3.93;;;3.17;;
18140;SDS011;9196;49.194;12.526;2024-03-17T00:41:20;4.78;;;3.58;;
18140;SDS011;9196;49.194;12.526;2024-03-17T00:43:46;3.42;;;3.22;;
18140;SDS011;9196;49.194;12.526;2024-03-17T00:46:13;4.20;;;3.80;;
18140;SDS011;9196;49.194;12.526;2024-03-17T00:48:39;4.17;;;3.87;;
18140;SDS011;9196;49.194;12.526;2024-03-17T00:51:06;3.75;;;3.55;;
18140;SDS011;9196;49.194;12.526;2024-03-17T00:53:31;10.53;;;2.70;;
18140;SDS011;9196;49.194;12.526;2024-03-17T00:55:58;3.95;;;3.53;;
18140;SDS011;9196;49.194;12.526;2024-03-17T00:58:27;3.28;;;3.08;;
18140;SDS011;9196;49.194;12.526;2024-03-17T01:00:54;4.68;;;2.90;;
18140;SDS011;9196;49.194;12.526;2024-03-17T01:03:19;3.10;;;2.90;;
18140;SDS011;9196;49.194;12.526;2024-03-17T01:05:47;4.38;;;3.10;;
18140;SDS011;9196;49.194;12.526;2024-03-17T01:08:13;6.10;;;3.83;;
18140;SDS011;9196;49.194;12.526;2024-03-17T01:10:40;3.50;;;2.92;;
18140;SDS011;9196;49.194;12.526;2024-03-17T01:13:07;4.13;;;3.42;;
18140;SDS011;9196;49.194;12.526;2024-03-17T01:15:36;3.72;;;3.10;;
18140;SDS011;9196;49.194;12.526;2024-03-17T01:18:04;4.72;;;3.10;;
18140;SDS011;9196;49.194;12.526;2024-03-17T01:20:31;3.78;;;3.47;;
18140;SDS011;9196;49.194;12.526;2024-03-17T01:22:58;4.22;;;3.80;;
18140;SDS011;9196;49.194;12.526;2024-03-17T01:25:24;7.30;;;6.60;;
18140;SDS011;9196;49.194;12.526;2024-03-17T01:27:51;10.32;;;9.30;;
18140;SDS011;9196;49.194;12.526;2024-03-17T01:30:17;7.50;;;6.90;;
18140;SDS011;9196;49.194;12.526;2024-03-17T01:32:46;7.80;;;7.00;;
18140;SDS011;9196;49.194;12.526;2024-03-17T01:35:12;9.25;;;7.40;;
18140;SDS011;9196;49.194;12.526;2024-03-17T01:37:39;8.15;;;7.38;;
18140;SDS011;9196;49.194;12.526;2024-03-17T01:40:05;8.27;;;5.25;;
18140;SDS011;9196;49.194;12.526;2024-03-17T01:42:34;5.80;;;5.30;;
18140;SDS011;9196;49.194;12.526;2024-03-17T01:45:00;5.90;;;5.40;;
18140;SDS011;9196;49.194;12.526;2024-03-17T01:47:27;4.90;;;4.30;;
18140;SDS011;9196;49.194;12.526;2024-03-17T01:49:54;4.67;;;3.60;;
18140;SDS011;9196;49.194;12.526;2024-03-17T01:52:21;5.45;;;3.92;;
18140;SDS011;9196;49.194;12.526;2024-03-17T01:54:47;3.37;;;3.17;;
18140;SDS011;9196;49.194;12.526;2024-03-17T01:57:14;3.22;;;2.90;;
18140;SDS011;9196;49.194;12.526;2024-03-17T01:59:41;3.85;;;3.55;;
18140;SDS011;9196;49.194;12.526;2024-03-17T02:02:07;4.30;;;3.90;;
18140;SDS011;9196;49.194;12.526;2024-03-17T02:04:33;3.50;;;3.20;;
18140;SDS011;9196;49.194;12.526;2024-03-17T02:07:02;3.00;;;2.80;;
18140;SDS011;9196;49.194;12.526;2024-03-17T02:09:27;3.10;;;2.95;;
18140;SDS011;9196;49.194;12.526;2024-03-17T02:11:55;3.30;;;3.10;;
18140;SDS011;9196;49.194;12.526;2024-03-17T02:14:20;4.13;;;3.83;;
18140;SDS011;9196;49.194;12.526;2024-03-17T02:16:47;3.63;;;3.25;;
18140;SDS011;9196;49.194;12.526;2024-03-17T02:19:14;4.43;;;3.50;;
18140;SDS011;9196;49.194;12.526;2024-03-17T02:21:40;6.30;;;2.93;;
18140;SDS011;9196;49.194;12.526;2024-03-17T02:24:09;3.15;;;2.95;;
18140;SDS011;9196;49.194;12.526;2024-03-17T02:26:34;5.80;;;3.67;;
18140;SDS011;9196;49.194;12.526;2024-03-17T02:29:03;3.83;;;2.70;;
18140;SDS011;9196;49.194;12.526;2024-03-17T02:31:29;3.20;;;2.97;;
18140;SDS011;9196;49.194;12.526;2024-03-17T02:33:56;3.10;;;2.90;;
18140;SDS011;9196;49.194;12.526;2024-03-17T02:36:22;6.00;;;2.70;;
18140;SDS011;9196;49.194;12.526;2024-03-17T02:38:48;2.67;;;2.47;;
18140;SDS011;9196;49.194;12.526;2024-03-17T02:41:34;3.20;;;3.00;;
18140;SDS011;9196;49.194;12.526;2024-03-17T02:44:01;6.85;;;4.70;;
18140;SDS011;9196;49.194;12.526;2024-03-17T02:46:28;5.57;;;3.78;;
18140;SDS011;9196;49.194;12.526;2024-03-17T02:48:54;4.40;;;3.67;;
18140;SDS011;9196;49.194;12.526;2024-03-17T02:51:21;3.80;;;3.50;;
18140;SDS011;9196;49.194;12.526;2024-03-17T02:53:49;4.20;;;3.90;;
18140;SDS011;9196;49.194;12.526;2024-03-17T02:56:17;4.25;;;3.60;;
18140;SDS011;9196;49.194;12.526;2024-03-17T02:58:46;6.93;;;3.00;;
18140;SDS011;9196;49.194;12.526;2024-03-17T03:01:14;4.25;;;3.55;;
18140;SDS011;9196;49.194;12.526;2024-03-17T03:03:41;3.55;;;3.25;;
18140;SDS011;9196;49.194;12.526;2024-03-17T03:06:08;3.05;;;2.95;;
18140;SDS011;9196;49.194;12.526;2024-03-17T03:08:36;3.10;;;2.90;;
18140;SDS011;9196;49.194;12.526;2024-03-17T03:11:05;3.22;;;3.03;;
18140;SDS011;9196;49.194;12.526;2024-03-17T03:13:35;4.55;;;4.15;;
18140;SDS011;9196;49.194;12.526;2024-03-17T03:16:05;3.20;;;3.00;;
18140;SDS011;9196;49.194;12.526;2024-03-17T03:18:33;10.15;;;3.10;;
18140;SDS011;9196;49.194;12.526;2024-03-17T03:20:59;3.03;;;2.83;;
18140;SDS011;9196;49.194;12.526;2024-03-17T03:23:26;3.00;;;2.75;;
18140;SDS011;9196;49.194;12.526;2024-03-17T03:25:56;3.38;;;3.00;;
18140;SDS011;9196;49.194;12.526;2024-03-17T03:28:23;3.70;;;3.40;;
18140;SDS011;9196;49.194;12.526;2024-03-17T03:30:51;3.75;;;3.40;;
18140;SDS011;9196;49.194;12.526;2024-03-17T03:33:19;3.08;;;2.85;;
18140;SDS011;9196;49.194;12.526;2024-03-17T03:35:46;3.90;;;3.60;;
18140;SDS011;9196;49.194;12.526;2024-03-17T03:38:13;2.88;;;2.67;;
18140;SDS011;9196;49.194;12.526;2024-03-17T03:40:40;3.10;;;2.50;;
18140;SDS011;9196;49.194;12.526;2024-03-17T03:43:07;2.35;;;2.25;;
18140;SDS011;9196;49.194;12.526;2024-03-17T03:45:33;3.50;;;3.30;;
18140;SDS011;9196;49.194;12.526;2024-03-17T03:48:01;5.32;;;2.60;;
18140;SDS011;9196;49.194;12.526;2024-03-17T03:50:29;2.72;;;2.53;;
18140;SDS011;9196;49.194;12.526;2024-03-17T03:52:57;3.53;;;2.70;;
18140;SDS011;9196;49.194;12.526;2024-03-17T03:55:24;2.63;;;2.53;;
18140;SDS011;9196;49.194;12.526;2024-03-17T03:57:50;4.97;;;2.70;;
18140;SDS011;9196;49.194;12.526;2024-03-17T04:00:18;3.20;;;3.10;;
18140;SDS011;9196;49.194;12.526;2024-03-17T04:02:47;2.70;;;2.60;;
18140;SDS011;9196;49.194;12.526;2024-03-17T04:05:14;3.05;;;2.92;;
18140;SDS011;9196;49.194;12.526;2024-03-17T04:07:42;3.80;;;3.50;;
18140;SDS011;9196;49.194;12.526;2024-03-17T04:10:11;2.58;;;2.30;;
18140;SDS011;9196;49.194;12.526;2024-03-17T04:12:38;2.45;;;2.35;;
18140;SDS011;9196;49.194;12.526;2024-03-17T04:15:05;3.58;;;2.70;;
18140;SDS011;9196;49.194;12.526;2024-03-17T04:17:35;2.40;;;2.30;;
18140;SDS011;9196;49.194;12.526;2024-03-17T04:20:02;2.63;;;2.53;;
18140;SDS011;9196;49.194;12.526;2024-03-17T04:22:30;2.70;;;2.60;;
18140;SDS011;9196;49.194;12.526;2024-03-17T04:24:58;7.50;;;3.05;;
18140;SDS011;9196;49.194;12.526;2024-03-17T04:27:25;2.72;;;2.63;;
18140;SDS011;9196;49.194;12.526;2024-03-17T04:29:53;3.63;;;3.42;;
18140;SDS011;9196;49.194;12.526;2024-03-17T04:32:20;3.88;;;3.58;;
18140;SDS011;9196;49.194;12.526;2024-03-17T04:34:48;3.47;;;3.17;;
18140;SDS011;9196;49.194;12.526;2024-03-17T04:37:15;5.97;;;3.30;;
18140;SDS011;9196;49.194;12.526;2024-03-17T04:39:42;4.18;;;3.42;;
18140;SDS011;9196;49.194;12.526;2024-03-17T04:42:12;3.40;;;3.20;;
18140;SDS011;9196;49.194;12.526;2024-03-17T04:44:40;16.60;;;3.28;;
18140;SDS011;9196;49.194;12.526;2024-03-17T04:47:08;3.97;;;3.72;;
18140;SDS011;9196;49.194;12.526;2024-03-17T04:49:35;3.00;;;2.90;;
18140;SDS011;9196;49.194;12.526;2024-03-17T04:52:02;4.30;;;3.15;;
18140;SDS011;9196;49.194;12.526;2024-03-17T04:54:30;4.20;;;3.90;;
18140;SDS011;9196;49.194;12.526;2024-03-17T04:56:57;4.00;;;3.70;;
18140;SDS011;9196;49.194;12.526;2024-03-17T04:59:25;6.30;;;3.78;;
18140;SDS011;9196;49.194;12.526;2024-03-17T05:01:52;80.93;;;5.10;;
18140;SDS011;9196;49.194;12.526;2024-03-17T05:04:19;12.25;;;3.88;;
18140;SDS011;9196;49.194;12.526;2024-03-17T05:06:48;12.23;;;4.05;;
18140;SDS011;9196;49.194;12.526;2024-03-17T05:09:15;25.05;;;4.13;;
18140;SDS011;9196;49.194;12.526;2024-03-17T05:11:41;4.47;;;4.13;;
18140;SDS011;9196;49.194;12.526;2024-03-17T05:14:08;17.27;;;3.50;;
18140;SDS011;9196;49.194;12.526;2024-03-17T05:16:37;3.97;;;3.67;;
18140;SDS011;9196;49.194;12.526;2024-03-17T05:19:03;4.63;;;4.22;;
18140;SDS011;9196;49.194;12.526;2024-03-17T05:21:31;4.18;;;3.83;;
18140;SDS011;9196;49.194;12.526;2024-03-17T05:24:00;4.53;;;4.13;;
18140;SDS011;9196;49.194;12.526;2024-03-17T05:26:28;3.15;;;3.00;;
18140;SDS011;9196;49.194;12.526;2024-03-17T05:28:56;4.45;;;4.05;;
18140;SDS011;9196;49.194;12.526;2024-03-17T05:31:23;5.28;;;4.10;;
18140;SDS011;9196;49.194;12.526;2024-03-17T05:33:51;11.10;;;3.72;;
18140;SDS011;9196;49.194;12.526;2024-03-17T05:36:18;3.75;;;2.75;;
18140;SDS011;9196;49.194;12.526;2024-03-17T05:38:46;3.63;;;3.33;;
18140;SDS011;9196;49.194;12.526;2024-03-17T05:41:13;3.60;;;3.30;;
18140;SDS011;9196;49.194;12.526;2024-03-17T05:43:40;4.80;;;4.35;;
18140;SDS011;9196;49.194;12.526;2024-03-17T05:46:08;3.83;;;3.53;;
18140;SDS011;9196;49.194;12.526;2024-03-17T05:48:36;5.50;;;3.67;;
18140;SDS011;9196;49.194;12.526;2024-03-17T05:51:05;3.90;;;3.60;;
18140;SDS011;9196;49.194;12.526;2024-03-17T05:53:33;4.13;;;3.80;;
18140;SDS011;9196;49.194;12.526;2024-03-17T05:56:00;6.45;;;4.03;;
18140;SDS011;9196;49.194;12.526;2024-03-17T05:58:29;3.55;;;3.35;;
18140;SDS011;9196;49.194;12.526;2024-03-17T06:00:56;3.47;;;3.28;;
18140;SDS011;9196;49.194;12.526;2024-03-17T06:03:23;4.32;;;3.95;;
18140;SDS011;9196;49.194;12.526;2024-03-17T06:05:50;4.13;;;3.72;;
18140;SDS011;9196;49.194;12.526;2024-03-17T06:08:20;5.55;;;4.53;;
18140;SDS011;9196;49.194;12.526;2024-03-17T06:10:47;6.63;;;5.57;;
18140;SDS011;9196;49.194;12.526;2024-03-17T06:13:14;5.95;;;4.70;;
18140;SDS011;9196;49.194;12.526;2024-03-17T06:15:42;3.38;;;3.17;;
18140;SDS011;9196;49.194;12.526;2024-03-17T06:18:10;3.85;;;3.55;;
18140;SDS011;9196;49.194;12.526;2024-03-17T06:20:39;3.30;;;3.10;;
18140;SDS011;9196;49.194;12.526;2024-03-17T06:23:08;3.10;;;2.90;;
18140;SDS011;9196;49.194;12.526;2024-03-17T06:25:39;3.75;;;3.45;;
18140;SDS011;9196;49.194;12.526;2024-03-17T06:28:06;4.15;;;3.85;;
18140;SDS011;9196;49.194;12.526;2024-03-17T06:30:34;4.20;;;3.92;;
18140;SDS011;9196;49.194;12.526;2024-03-17T06:33:02;4.90;;;4.00;;
18140;SDS011;9196;49.194;12.526;2024-03-17T06:35:30;4.43;;;4.03;;
18140;SDS011;9196;49.194;12.526;2024-03-17T06:37:58;4.95;;;4.55;;
18140;SDS011;9196;49.194;12.526;2024-03-17T06:40:26;4.10;;;3.70;;
18140;SDS011;9196;49.194;12.526;2024-03-17T06:42:54;4.78;;;4.40;;
18140;SDS011;9196;49.194;12.526;2024-03-17T06:45:21;5.35;;;4.47;;
18140;SDS011;9196;49.194;12.526;2024-03-17T06:47:49;5.15;;;4.75;;
18140;SDS011;9196;49.194;12.526;2024-03-17T06:50:16;4.10;;;3.78;;
18140;SDS011;9196;49.194;12.526;2024-03-17T06:52:43;8.75;;;5.13;;
18140;SDS011;9196;49.194;12.526;2024-03-17T06:55:09;4.50;;;4.20;;
18140;SDS011;9196;49.194;12.526;2024-03-17T06:57:37;7.38;;;5.20;;
18140;SDS011;9196;49.194;12.526;2024-03-17T07:00:06;5.93;;;5.32;;
18140;SDS011;9196;49.194;12.526;2024-03-17T07:02:39;6.20;;;5.50;;
18140;SDS011;9196;49.194;12.526;2024-03-17T07:05:10;7.10;;;5.88;;
18140;SDS011;9196;49.194;12.526;2024-03-17T07:07:39;6.00;;;5.40;;
18140;SDS011;9196;49.194;12.526;2024-03-17T07:10:06;7.15;;;6.55;;
18140;SDS011;9196;49.194;12.526;2024-03-17T07:12:33;5.90;;;5.40;;
18140;SDS011;9196;49.194;12.526;2024-03-17T07:15:00;6.90;;;6.30;;
18140;SDS011;9196;49.194;12.526;2024-03-17T07:17:28;5.72;;;5.22;;
18140;SDS011;9196;49.194;12.526;2024-03-17T07:19:55;7.10;;;6.38;;
18140;SDS011;9196;49.194;12.526;2024-03-17T07:22:22;9.23;;;8.23;;
18140;SDS011;9196;49.194;12.526;2024-03-17T07:24:51;7.10;;;6.13;;
18140;SDS011;9196;49.194;12.526;2024-03-17T07:27:20;7.03;;;6.43;;
18140;SDS011;9196;49.194;12.526;2024-03-17T07:29:47;9.23;;;7.93;;
18140;SDS011;9196;49.194;12.526;2024-03-17T07:32:14;10.23;;;9.27;;
18140;SDS011;9196;49.194;12.526;2024-03-17T07:34:42;14.88;;;12.23;;
18140;SDS011;9196;49.194;12.526;2024-03-17T07:37:09;5.50;;;5.00;;
18140;SDS011;9196;49.194;12.526;2024-03-17T07:39:36;5.55;;;5.05;;
18140;SDS011;9196;49.194;12.526;2024-03-17T07:42:03;7.13;;;6.43;;
18140;SDS011;9196;49.194;12.526;2024-03-17T07:44:32;7.25;;;6.70;;
18140;SDS011;9196;49.194;12.526;2024-03-17T07:46:59;5.60;;;5.10;;
18140;SDS011;9196;49.194;12.526;2024-03-17T07:49:26;6.60;;;6.00;;
18140;SDS011;9196;49.194;12.526;2024-03-17T07:51:54;6.22;;;5.68;;
18140;SDS011;9196;49.194;12.526;2024-03-17T07:54:22;6.85;;;6.18;;
18140;SDS011;9196;49.194;12.526;2024-03-17T07:56:49;5.80;;;5.30;;
18140;SDS011;9196;49.194;12.526;2024-03-17T07:59:16;5.78;;;5.05;;
18140;SDS011;9196;49.194;12.526;2024-03-17T08:01:43;5.00;;;4.70;;
18140;SDS011;9196;49.194;12.526;2024-03-17T08:04:10;4.35;;;3.95;;
18140;SDS011;9196;49.194;12.526;2024-03-17T08:06:37;4.40;;;4.18;;
18140;SDS011;9196;49.194;12.526;2024-03-17T08:09:07;4.50;;;4.10;;
18140;SDS011;9196;49.194;12.526;2024-03-17T08:11:34;6.50;;;5.90;;
18140;SDS011;9196;49.194;12.526;2024-03-17T08:14:01;4.45;;;4.10;;
18140;SDS011;9196;49.194;12.526;2024-03-17T08:16:28;5.28;;;4.68;;
18140;SDS011;9196;49.194;12.526;2024-03-17T08:18:55;6.40;;;5.07;;
18140;SDS011;9196;49.194;12.526;2024-03-17T08:21:22;3.95;;;3.75;;
18140;SDS011;9196;49.194;12.526;2024-03-17T08:23:49;4.30;;;3.22;;
18140;SDS011;9196;49.194;12.526;2024-03-17T08:26:18;5.00;;;4.50;;
18140;SDS011;9196;49.194;12.526;2024-03-17T08:28:45;4.23;;;3.93;;
18140;SDS011;9196;49.194;12.526;2024-03-17T08:31:13;3.80;;;3.60;;
18140;SDS011;9196;49.194;12.526;2024-03-17T08:33:41;4.30;;;3.97;;
18140;SDS011;9196;49.194;12.526;2024-03-17T08:36:08;5.38;;;3.38;;
18140;SDS011;9196;49.194;12.526;2024-03-17T08:38:36;3.05;;;2.85;;
18140;SDS011;9196;49.194;12.526;2024-03-17T08:41:04;3.25;;;3.05;;
18140;SDS011;9196;49.194;12.526;2024-03-17T08:43:33;2.53;;;2.33;;
18140;SDS011;9196;49.194;12.526;2024-03-17T08:46:01;3.40;;;3.10;;
18140;SDS011;9196;49.194;12.526;2024-03-17T08:48:31;2.65;;;2.55;;
18140;SDS011;9196;49.194;12.526;2024-03-17T08:50:59;3.35;;;3.15;;
18140;SDS011;9196;49.194;12.526;2024-03-17T08:53:26;3.60;;;2.50;;
18140;SDS011;9196;49.194;12.526;2024-03-17T08:55:54;5.40;;;2.87;;
18140;SDS011;9196;49.194;12.526;2024-03-17T08:58:21;3.10;;;2.80;;
18140;SDS011;9196;49.194;12.526;2024-03-17T09:00:49;3.23;;;2.73;;
18140;SDS011;9196;49.194;12.526;2024-03-17T09:03:17;3.67;;;2.83;;
18140;SDS011;9196;49.194;12.526;2024-03-17T09:05:44;2.70;;;2.60;;
18140;SDS011;9196;49.194;12.526;2024-03-17T09:08:15;5.20;;;3.03;;
18140;SDS011;9196;49.194;12.526;2024-03-17T09:10:45;3.87;;;2.90;;
18140;SDS011;9196;49.194;12.526;2024-03-17T09:13:13;10.93;;;3.23;;
18140;SDS011;9196;49.194;12.526;2024-03-17T09:15:41;3.40;;;3.10;;
18140;SDS011;9196;49.194;12.526;2024-03-17T09:18:17;3.00;;;2.80;;
18140;SDS011;9196;49.194;12.526;2024-03-17T09:20:43;4.10;;;2.80;;
18140;SDS011;9196;49.194;12.526;2024-03-17T09:23:11;3.20;;;3.00;;
18140;SDS011;9196;49.194;12.526;2024-03-17T09:25:39;3.33;;;3.10;;
18140;SDS011;9196;49.194;12.526;2024-03-17T09:28:05;2.90;;;2.70;;
18140;SDS011;9196;49.194;12.526;2024-03-17T09:30:32;3.87;;;3.10;;
18140;SDS011;9196;49.194;12.526;2024-03-17T09:33:00;3.60;;;3.10;;
18140;SDS011;9196;49.194;12.526;2024-03-17T09:35:29;3.03;;;2.67;;
18140;SDS011;9196;49.194;12.526;2024-03-17T09:37:56;3.43;;;2.83;;
18140;SDS011;9196;49.194;12.526;2024-03-17T09:40:23;2.90;;;2.70;;
18140;SDS011;9196;49.194;12.526;2024-03-17T09:42:50;2.90;;;2.80;;
18140;SDS011;9196;49.194;12.526;2024-03-17T09:45:17;2.60;;;2.47;;
18140;SDS011;9196;49.194;12.526;2024-03-17T09:47:45;3.77;;;3.47;;
18140;SDS011;9196;49.194;12.526;2024-03-17T09:50:13;3.23;;;2.97;;
18140;SDS011;9196;49.194;12.526;2024-03-17T09:52:42;3.10;;;2.80;;
18140;SDS011;9196;49.194;12.526;2024-03-17T09:55:13;3.03;;;2.80;;
18140;SDS011;9196;49.194;12.526;2024-03-17T09:57:42;3.10;;;2.90;;
18140;SDS011;9196;49.194;12.526;2024-03-17T10:00:10;4.50;;;3.60;;
18140;SDS011;9196;49.194;12.526;2024-03-17T10:02:41;4.37;;;4.00;;
18140;SDS011;9196;49.194;12.526;2024-03-17T10:05:19;9.13;;;3.87;;
18140;SDS011;9196;49.194;12.526;2024-03-17T10:07:47;3.37;;;3.07;;
18140;SDS011;9196;49.194;12.526;2024-03-17T10:10:14;4.20;;;3.30;;
18140;SDS011;9196;49.194;12.526;2024-03-17T10:12:42;4.80;;;2.73;;
18140;SDS011;9196;49.194;12.526;2024-03-17T10:15:10;5.03;;;3.70;;
18140;SDS011;9196;49.194;12.526;2024-03-17T10:17:37;2.90;;;2.73;;
18140;SDS011;9196;49.194;12.526;2024-03-17T10:20:14;3.73;;;3.47;;
18140;SDS011;9196;49.194;12.526;2024-03-17T10:22:59;3.90;;;3.50;;
18140;SDS011;9196;49.194;12.526;2024-03-17T10:25:28;8.50;;;2.97;;
18140;SDS011;9196;49.194;12.526;2024-03-17T10:27:55;6.93;;;3.10;;
18140;SDS011;9196;49.194;12.526;2024-03-17T10:30:23;3.33;;;3.13;;
18140;SDS011;9196;49.194;12.526;2024-03-17T10:32:55;6.03;;;3.30;;
18140;SDS011;9196;49.194;12.526;2024-03-17T10:35:32;4.00;;;3.70;;
18140;SDS011;9196;49.194;12.526;2024-03-17T10:38:01;4.00;;;3.60;;
18140;SDS011;9196;49.194;12.526;2024-03-17T10:40:29;5.10;;;3.10;;
18140;SDS011;9196;49.194;12.526;2024-03-17T10:42:59;4.20;;;3.00;;
18140;SDS011;9196;49.194;12.526;2024-03-17T10:45:29;4.00;;;3.60;;
18140;SDS011;9196;49.194;12.526;2024-03-17T10:48:00;3.47;;;3.27;;
18140;SDS011;9196;49.194;12.526;2024-03-17T10:50:29;3.27;;;3.07;;
18140;SDS011;9196;49.194;12.526;2024-03-17T10:52:58;3.30;;;3.00;;
18140;SDS011;9196;49.194;12.526;2024-03-17T10:55:32;4.80;;;2.90;;
18140;SDS011;9196;49.194;12.526;2024-03-17T10:58:13;3.07;;;2.87;;
18140;SDS011;9196;49.194;12.526;2024-03-17T11:00:49;3.73;;;3.03;;
18140;SDS011;9196;49.194;12.526;2024-03-17T11:03:16;4.37;;;2.80;;
18140;SDS011;9196;49.194;12.526;2024-03-17T11:05:46;2.67;;;2.43;;
18140;SDS011;9196;49.194;12.526;2024-03-17T11:08:16;3.00;;;2.80;;
18140;SDS011;9196;49.194;12.526;2024-03-17T11:10:48;3.20;;;3.00;;
18140;SDS011;9196;49.194;12.526;2024-03-17T11:13:24;4.67;;;3.63;;
18140;SDS011;9196;49.194;12.526;2024-03-17T11:15:52;3.23;;;3.03;;
18140;SDS011;9196;49.194;12.526;2024-03-17T11:18:36;5.33;;;2.97;;
18140;SDS011;9196;49.194;12.526;2024-03-17T11:21:04;3.30;;;3.10;;
18140;SDS011;9196;49.194;12.526;2024-03-17T11:23:55;4.03;;;3.63;;
18140;SDS011;9196;49.194;12.526;2024-03-17T11:26:28;4.50;;;3.00;;
18140;SDS011;9196;49.194;12.526;2024-03-17T11:28:56;7.33;;;3.00;;
18140;SDS011;9196;49.194;12.526;2024-03-17T11:31:37;4.63;;;3.10;;
18140;SDS011;9196;49.194;12.526;2024-03-17T11:36:59;3.40;;;3.07;;
18140;SDS011;9196;49.194;12.526;2024-03-17T11:42:22;3.17;;;2.97;;
18140;SDS011;9196;49.194;12.526;2024-03-17T11:44:56;3.37;;;3.00;;
18140;SDS011;9196;49.194;12.526;2024-03-17T11:47:32;6.93;;;2.73;;
18140;SDS011;9196;49.194;12.526;2024-03-17T11:50:01;3.27;;;2.83;;
18140;SDS011;9196;49.194;12.526;2024-03-17T11:52:30;2.20;;;2.10;;
18140;SDS011;9196;49.194;12.526;2024-03-17T11:54:57;2.43;;;2.23;;
18140;SDS011;9196;49.194;12.526;2024-03-17T11:57:24;2.30;;;2.20;;
18140;SDS011;9196;49.194;12.526;2024-03-17T11:59:52;2.83;;;2.53;;
18140;SDS011;9196;49.194;12.526;2024-03-17T12:02:20;3.77;;;2.80;;
18140;SDS011;9196;49.194;12.526;2024-03-17T12:04:47;2.70;;;2.50;;
18140;SDS011;9196;49.194;12.526;2024-03-17T12:07:14;3.70;;;2.83;;
18140;SDS011;9196;49.194;12.526;2024-03-17T12:09:43;2.60;;;2.40;;
18140;SDS011;9196;49.194;12.526;2024-03-17T12:12:15;2.60;;;2.23;;
18140;SDS011;9196;49.194;12.526;2024-03-17T12:14:43;4.83;;;2.30;;
18140;SDS011;9196;49.194;12.526;2024-03-17T12:17:11;2.83;;;2.57;;
18140;SDS011;9196;49.194;12.526;2024-03-17T12:19:39;2.53;;;2.30;;
18140;SDS011;9196;49.194;12.526;2024-03-17T12:22:07;4.97;;;2.90;;
18140;SDS011;9196;49.194;12.526;2024-03-17T12:24:34;2.97;;;2.77;;
18140;SDS011;9196;49.194;12.526;2024-03-17T12:27:03;2.30;;;2.10;;
18140;SDS011;9196;49.194;12.526;2024-03-17T12:29:32;4.50;;;2.40;;
18140;SDS011;9196;49.194;12.526;2024-03-17T12:32:01;3.23;;;2.93;;
18140;SDS011;9196;49.194;12.526;2024-03-17T12:34:29;3.53;;;2.37;;
18140;SDS011;9196;49.194;12.526;2024-03-17T12:36:57;2.90;;;2.23;;
18140;SDS011;9196;49.194;12.526;2024-03-17T12:39:24;4.40;;;3.00;;
18140;SDS011;9196;49.194;12.526;2024-03-17T12:42:01;2.70;;;2.30;;
18140;SDS011;9196;49.194;12.526;2024-03-17T12:44:29;2.60;;;2.40;;
18140;SDS011;9196;49.194;12.526;2024-03-17T12:46:57;2.57;;;2.43;;
18140;SDS011;9196;49.194;12.526;2024-03-17T12:49:25;1.87;;;1.77;;
18140;SDS011;9196;49.194;12.526;2024-03-17T12:51:52;7.83;;;2.33;;
18140;SDS011;9196;49.194;12.526;2024-03-17T12:54:20;4.60;;;3.20;;
18140;SDS011;9196;49.194;12.526;2024-03-17T12:56:49;2.57;;;2.37;;
18140;SDS011;9196;49.194;12.526;2024-03-17T12:59:41;2.83;;;2.63;;
18140;SDS011;9196;49.194;12.526;2024-03-17T13:02:42;2.40;;;2.30;;
18140;SDS011;9196;49.194;12.526;2024-03-17T13:05:15;2.70;;;2.50;;
18140;SDS011;9196;49.194;12.526;2024-03-17T13:07:44;3.67;;;2.20;;
18140;SDS011;9196;49.194;12.526;2024-03-17T13:10:13;2.50;;;2.40;;
18140;SDS011;9196;49.194;12.526;2024-03-17T13:12:41;3.40;;;2.20;;
18140;SDS011;9196;49.194;12.526;2024-03-17T13:15:08;6.67;;;2.30;;
18140;SDS011;9196;49.194;12.526;2024-03-17T13:17:39;4.00;;;2.50;;
18140;SDS011;9196;49.194;12.526;2024-03-17T13:20:08;2.60;;;2.40;;
18140;SDS011;9196;49.194;12.526;2024-03-17T13:22:38;5.43;;;2.80;;
18140;SDS011;9196;49.194;12.526;2024-03-17T13:25:08;3.00;;;2.67;;
18140;SDS011;9196;49.194;12.526;2024-03-17T13:27:38;3.27;;;2.50;;
18140;SDS011;9196;49.194;12.526;2024-03-17T13:30:05;2.63;;;1.90;;
18140;SDS011;9196;49.194;12.526;2024-03-17T13:32:34;2.53;;;2.40;;
18140;SDS011;9196;49.194;12.526;2024-03-17T13:35:01;2.33;;;2.13;;
18140;SDS011;9196;49.194;12.526;2024-03-17T13:37:29;2.53;;;2.33;;
18140;SDS011;9196;49.194;12.526;2024-03-17T13:39:56;2.23;;;1.80;;
18140;SDS011;9196;49.194;12.526;2024-03-17T13:42:25;1.70;;;1.70;;
18140;SDS011;9196;49.194;12.526;2024-03-17T13:44:52;4.10;;;2.37;;
18140;SDS011;9196;49.194;12.526;2024-03-17T13:47:19;5.53;;;2.27;;
18140;SDS011;9196;49.194;12.526;2024-03-17T13:49:45;3.27;;;2.30;;
18140;SDS011;9196;49.194;12.526;2024-03-17T13:52:12;3.50;;;2.50;;
18140;SDS011;9196;49.194;12.526;2024-03-17T13:54:40;2.47;;;2.27;;
18140;SDS011;9196;49.194;12.526;2024-03-17T13:57:07;3.83;;;2.33;;
18140;SDS011;9196;49.194;12.526;2024-03-17T13:59:34;2.10;;;2.00;;
18140;SDS011;9196;49.194;12.526;2024-03-17T14:02:01;3.40;;;2.27;;
18140;SDS011;9196;49.194;12.526;2024-03-17T14:04:29;5.23;;;1.90;;
18140;SDS011;9196;49.194;12.526;2024-03-17T14:06:56;3.07;;;2.20;;
18140;SDS011;9196;49.194;12.526;2024-03-17T14:09:23;2.57;;;2.37;;
18140;SDS011;9196;49.194;12.526;2024-03-17T14:11:51;2.33;;;2.13;;
18140;SDS011;9196;49.194;12.526;2024-03-17T14:14:18;2.10;;;2.00;;
18140;SDS011;9196;49.194;12.526;2024-03-17T14:16:44;2.47;;;2.20;;
18140;SDS011;9196;49.194;12.526;2024-03-17T14:19:11;4.43;;;2.10;;
18140;SDS011;9196;49.194;12.526;2024-03-17T14:21:38;2.10;;;1.83;;
18140;SDS011;9196;49.194;12.526;2024-03-17T14:24:05;2.30;;;2.20;;
18140;SDS011;9196;49.194;12.526;2024-03-17T14:26:34;5.67;;;2.00;;
18140;SDS011;9196;49.194;12.526;2024-03-17T14:29:02;1.80;;;1.70;;
18140;SDS011;9196;49.194;12.526;2024-03-17T14:31:32;2.77;;;1.80;;
18140;SDS011;9196;49.194;12.526;2024-03-17T14:34:01;4.67;;;2.60;;
18140;SDS011;9196;49.194;12.526;2024-03-17T14:36:29;5.20;;;2.17;;
18140;SDS011;9196;49.194;12.526;2024-03-17T14:38:58;2.93;;;2.07;;
18140;SDS011;9196;49.194;12.526;2024-03-17T14:41:27;2.50;;;2.30;;
18140;SDS011;9196;49.194;12.526;2024-03-17T14:43:54;2.37;;;1.80;;
18140;SDS011;9196;49.194;12.526;2024-03-17T14:46:23;2.47;;;1.90;;
18140;SDS011;9196;49.194;12.526;2024-03-17T14:48:50;1.97;;;1.90;;
18140;SDS011;9196;49.194;12.526;2024-03-17T14:51:17;3.50;;;2.47;;
18140;SDS011;9196;49.194;12.526;2024-03-17T14:53:46;2.13;;;1.93;;
18140;SDS011;9196;49.194;12.526;2024-03-17T14:56:14;7.47;;;1.93;;
18140;SDS011;9196;49.194;12.526;2024-03-17T14:58:42;2.33;;;2.13;;
18140;SDS011;9196;49.194;12.526;2024-03-17T15:01:09;5.87;;;2.87;;